sensor_id;sensor_type;location;lat;lon;timestamp;temperature;humidity
4727;DHT22;2377;51.734;8.950;2022-12-11T00:00:08;-0.40;99.90
4727;DHT22;2377;51.734;8.950;2022-12-11T00:02:37;-0.30;99.90
4727;DHT22;2377;51.734;8.950;2022-12-11T00:05:05;-0.40;99.90
4727;DHT22;2377;51.734;8.950;2022-12-11T00:07:32;-0.40;99.90
4727;DHT22;2377;51.734;8.950;2022-12-11T00:10:00;-0.40;99.90
4727;DHT22;2377;51.734;8.950;2022-12-11T00:12:28;-0.40;99.90
4727;DHT22;2377;51.734;8.950;2022-12-11T00:14:57;-0.40;99.90
4727;DHT22;2377;51.734;8.950;2022-12-11T00:17:24;-0.40;99.90
4727;DHT22;2377;51.734;8.950;2022-12-11T00:19:51;-0.40;99.90
4727;DHT22;2377;51.734;8.950;2022-12-11T00:22:19;-0.30;99.90
4727;DHT22;2377;51.734;8.950;2022-12-11T00:24:46;-0.40;99.90
4727;DHT22;2377;51.734;8.950;2022-12-11T00:27:13;-0.40;99.90
4727;DHT22;2377;51.734;8.950;2022-12-11T00:29:40;-0.40;99.90
4727;DHT22;2377;51.734;8.950;2022-12-11T00:32:09;-0.40;99.90
4727;DHT22;2377;51.734;8.950;2022-12-11T00:34:36;-0.40;99.90
4727;DHT22;2377;51.734;8.950;2022-12-11T00:37:03;-0.40;99.90
4727;DHT22;2377;51.734;8.950;2022-12-11T00:39:31;-0.30;99.90
4727;DHT22;2377;51.734;8.950;2022-12-11T00:41:58;-0.30;99.90
4727;DHT22;2377;51.734;8.950;2022-12-11T00:44:25;-0.30;99.90
4727;DHT22;2377;51.734;8.950;2022-12-11T00:46:52;-0.30;99.90
4727;DHT22;2377;51.734;8.950;2022-12-11T00:49:21;-0.30;99.90
4727;DHT22;2377;51.734;8.950;2022-12-11T00:51:48;-0.30;99.90
4727;DHT22;2377;51.734;8.950;2022-12-11T00:54:15;-0.30;99.90
4727;DHT22;2377;51.734;8.950;2022-12-11T00:56:42;-0.30;99.90
4727;DHT22;2377;51.734;8.950;2022-12-11T00:59:10;-0.30;99.90
4727;DHT22;2377;51.734;8.950;2022-12-11T01:01:38;-0.30;99.90
4727;DHT22;2377;51.734;8.950;2022-12-11T01:04:05;-0.30;99.90
4727;DHT22;2377;51.734;8.950;2022-12-11T01:06:34;-0.30;99.90
4727;DHT22;2377;51.734;8.950;2022-12-11T01:09:01;-0.30;99.90
4727;DHT22;2377;51.734;8.950;2022-12-11T01:11:45;-0.30;99.90
4727;DHT22;2377;51.734;8.950;2022-12-11T01:14:12;-0.30;99.90
4727;DHT22;2377;51.734;8.950;2022-12-11T01:16:40;-0.30;99.90
4727;DHT22;2377;51.734;8.950;2022-12-11T01:19:07;-0.30;99.90
4727;DHT22;2377;51.734;8.950;2022-12-11T01:21:36;-0.30;99.90
4727;DHT22;2377;51.734;8.950;2022-12-11T01:24:03;-0.30;99.90
4727;DHT22;2377;51.734;8.950;2022-12-11T01:26:31;-0.30;99.90
4727;DHT22;2377;51.734;8.950;2022-12-11T01:28:58;-0.30;99.90
4727;DHT22;2377;51.734;8.950;2022-12-11T01:31:26;-0.30;99.90
4727;DHT22;2377;51.734;8.950;2022-12-11T01:33:53;-0.30;99.90
4727;DHT22;2377;51.734;8.950;2022-12-11T01:36:21;-0.30;99.90
4727;DHT22;2377;51.734;8.950;2022-12-11T01:38:50;-0.30;99.90
4727;DHT22;2377;51.734;8.950;2022-12-11T01:41:19;-0.30;99.90
4727;DHT22;2377;51.734;8.950;2022-12-11T01:43:58;-0.30;99.90
4727;DHT22;2377;51.734;8.950;2022-12-11T01:46:28;-0.30;99.90
4727;DHT22;2377;51.734;8.950;2022-12-11T01:48:58;-0.30;99.90
4727;DHT22;2377;51.734;8.950;2022-12-11T01:51:28;-0.30;99.90
4727;DHT22;2377;51.734;8.950;2022-12-11T01:54:03;-0.30;99.90
4727;DHT22;2377;51.734;8.950;2022-12-11T01:56:35;-0.40;99.90
4727;DHT22;2377;51.734;8.950;2022-12-11T01:59:07;-0.40;99.90
4727;DHT22;2377;51.734;8.950;2022-12-11T02:01:38;-0.40;99.90
4727;DHT22;2377;51.734;8.950;2022-12-11T02:04:08;-0.40;99.90
4727;DHT22;2377;51.734;8.950;2022-12-11T02:06:38;-0.50;99.90
4727;DHT22;2377;51.734;8.950;2022-12-11T02:09:12;-0.50;99.90
4727;DHT22;2377;51.734;8.950;2022-12-11T02:11:47;-0.40;99.90
4727;DHT22;2377;51.734;8.950;2022-12-11T02:14:27;-0.40;99.90
4727;DHT22;2377;51.734;8.950;2022-12-11T02:17:03;-0.40;99.90
4727;DHT22;2377;51.734;8.950;2022-12-11T02:19:57;-0.40;99.90
4727;DHT22;2377;51.734;8.950;2022-12-11T02:22:46;-0.40;99.90
4727;DHT22;2377;51.734;8.950;2022-12-11T02:25:30;-0.40;99.90
4727;DHT22;2377;51.734;8.950;2022-12-11T02:28:17;-0.40;99.90
4727;DHT22;2377;51.734;8.950;2022-12-11T02:30:51;-0.40;99.90
4727;DHT22;2377;51.734;8.950;2022-12-11T02:33:27;-0.40;99.90
4727;DHT22;2377;51.734;8.950;2022-12-11T02:36:02;-0.40;99.90
4727;DHT22;2377;51.734;8.950;2022-12-11T02:38:35;-0.40;99.90
4727;DHT22;2377;51.734;8.950;2022-12-11T02:41:07;-0.40;99.90
4727;DHT22;2377;51.734;8.950;2022-12-11T02:43:39;-0.30;99.90
4727;DHT22;2377;51.734;8.950;2022-12-11T02:46:08;-0.30;99.90
4727;DHT22;2377;51.734;8.950;2022-12-11T02:48:38;-0.30;99.90
4727;DHT22;2377;51.734;8.950;2022-12-11T02:51:07;-0.30;99.90
4727;DHT22;2377;51.734;8.950;2022-12-11T02:53:39;-0.30;99.90
4727;DHT22;2377;51.734;8.950;2022-12-11T02:56:11;-0.30;99.90
4727;DHT22;2377;51.734;8.950;2022-12-11T02:58:46;-0.30;99.90
4727;DHT22;2377;51.734;8.950;2022-12-11T03:01:16;-0.40;99.90
4727;DHT22;2377;51.734;8.950;2022-12-11T03:03:43;-0.30;99.90
4727;DHT22;2377;51.734;8.950;2022-12-11T03:06:14;-0.40;99.90
4727;DHT22;2377;51.734;8.950;2022-12-11T03:08:45;-0.30;99.90
4727;DHT22;2377;51.734;8.950;2022-12-11T03:11:17;-0.40;99.90
4727;DHT22;2377;51.734;8.950;2022-12-11T03:13:45;-0.40;99.90
4727;DHT22;2377;51.734;8.950;2022-12-11T03:16:17;-0.40;99.90
4727;DHT22;2377;51.734;8.950;2022-12-11T03:19:00;-0.40;99.90
4727;DHT22;2377;51.734;8.950;2022-12-11T03:21:37;-0.30;99.90
4727;DHT22;2377;51.734;8.950;2022-12-11T03:24:14;-0.30;99.90
4727;DHT22;2377;51.734;8.950;2022-12-11T03:26:51;-0.30;99.90
4727;DHT22;2377;51.734;8.950;2022-12-11T03:29:26;-0.30;99.90
4727;DHT22;2377;51.734;8.950;2022-12-11T03:32:00;-0.30;99.90
4727;DHT22;2377;51.734;8.950;2022-12-11T03:34:40;-0.30;99.90
4727;DHT22;2377;51.734;8.950;2022-12-11T03:37:12;-0.30;99.90
4727;DHT22;2377;51.734;8.950;2022-12-11T03:39:45;-0.30;99.90
4727;DHT22;2377;51.734;8.950;2022-12-11T03:42:16;-0.40;99.90
4727;DHT22;2377;51.734;8.950;2022-12-11T03:44:49;-0.40;99.90
4727;DHT22;2377;51.734;8.950;2022-12-11T03:47:22;-0.50;1.00
4727;DHT22;2377;51.734;8.950;2022-12-11T03:49:51;-0.50;99.90
4727;DHT22;2377;51.734;8.950;2022-12-11T03:52:22;-0.50;1.00
4727;DHT22;2377;51.734;8.950;2022-12-11T03:54:52;-0.40;99.90
4727;DHT22;2377;51.734;8.950;2022-12-11T03:57:26;-0.40;99.90
4727;DHT22;2377;51.734;8.950;2022-12-11T03:59:58;-0.40;1.00
4727;DHT22;2377;51.734;8.950;2022-12-11T04:02:26;-0.40;99.90
4727;DHT22;2377;51.734;8.950;2022-12-11T04:04:53;-0.40;99.90
4727;DHT22;2377;51.734;8.950;2022-12-11T04:07:20;-0.40;99.90
4727;DHT22;2377;51.734;8.950;2022-12-11T04:09:47;-0.40;1.00
4727;DHT22;2377;51.734;8.950;2022-12-11T04:12:14;-0.40;1.00
4727;DHT22;2377;51.734;8.950;2022-12-11T04:14:42;-0.40;1.00
4727;DHT22;2377;51.734;8.950;2022-12-11T04:17:28;-0.40;1.00
4727;DHT22;2377;51.734;8.950;2022-12-11T04:20:13;-0.30;1.00
4727;DHT22;2377;51.734;8.950;2022-12-11T04:22:58;-0.40;1.00
4727;DHT22;2377;51.734;8.950;2022-12-11T04:25:41;-0.40;1.00
4727;DHT22;2377;51.734;8.950;2022-12-11T04:28:09;-0.40;1.00
4727;DHT22;2377;51.734;8.950;2022-12-11T04:30:36;-0.40;1.00
4727;DHT22;2377;51.734;8.950;2022-12-11T04:33:05;-0.40;1.00
4727;DHT22;2377;51.734;8.950;2022-12-11T04:35:32;-0.40;1.00
4727;DHT22;2377;51.734;8.950;2022-12-11T04:37:59;-0.30;1.00
4727;DHT22;2377;51.734;8.950;2022-12-11T04:40:26;-0.30;1.00
4727;DHT22;2377;51.734;8.950;2022-12-11T04:42:54;-0.30;1.00
4727;DHT22;2377;51.734;8.950;2022-12-11T04:45:21;-0.40;1.00
4727;DHT22;2377;51.734;8.950;2022-12-11T04:47:48;-0.40;1.00
4727;DHT22;2377;51.734;8.950;2022-12-11T04:50:17;-0.40;1.00
4727;DHT22;2377;51.734;8.950;2022-12-11T04:52:44;-0.30;1.00
4727;DHT22;2377;51.734;8.950;2022-12-11T04:55:11;-0.30;1.00
4727;DHT22;2377;51.734;8.950;2022-12-11T04:57:39;-0.30;1.00
4727;DHT22;2377;51.734;8.950;2022-12-11T05:00:09;-0.30;1.00
4727;DHT22;2377;51.734;8.950;2022-12-11T05:02:37;-0.30;1.00
4727;DHT22;2377;51.734;8.950;2022-12-11T05:05:08;-0.30;1.00
4727;DHT22;2377;51.734;8.950;2022-12-11T05:07:39;-0.30;1.00
4727;DHT22;2377;51.734;8.950;2022-12-11T05:10:07;-0.30;1.00
4727;DHT22;2377;51.734;8.950;2022-12-11T05:12:35;-0.30;1.00
4727;DHT22;2377;51.734;8.950;2022-12-11T05:15:03;-0.20;1.00
4727;DHT22;2377;51.734;8.950;2022-12-11T05:17:30;-0.30;1.00
4727;DHT22;2377;51.734;8.950;2022-12-11T05:19:58;-0.30;1.00
4727;DHT22;2377;51.734;8.950;2022-12-11T05:22:25;-0.30;1.00
4727;DHT22;2377;51.734;8.950;2022-12-11T05:24:53;-0.30;1.00
4727;DHT22;2377;51.734;8.950;2022-12-11T05:27:21;-0.20;1.00
4727;DHT22;2377;51.734;8.950;2022-12-11T05:29:48;-0.20;1.00
4727;DHT22;2377;51.734;8.950;2022-12-11T05:32:15;-0.10;1.00
4727;DHT22;2377;51.734;8.950;2022-12-11T05:34:42;-0.20;1.00
4727;DHT22;2377;51.734;8.950;2022-12-11T05:37:09;-0.20;1.00
4727;DHT22;2377;51.734;8.950;2022-12-11T05:39:37;-0.20;1.00
4727;DHT22;2377;51.734;8.950;2022-12-11T05:42:06;-0.30;1.00
4727;DHT22;2377;51.734;8.950;2022-12-11T05:44:33;-0.20;1.00
4727;DHT22;2377;51.734;8.950;2022-12-11T05:47:00;-0.20;1.00
4727;DHT22;2377;51.734;8.950;2022-12-11T05:49:28;-0.20;1.00
4727;DHT22;2377;51.734;8.950;2022-12-11T05:51:55;-0.20;1.00
4727;DHT22;2377;51.734;8.950;2022-12-11T05:54:22;-0.20;1.00
4727;DHT22;2377;51.734;8.950;2022-12-11T05:56:50;-0.20;1.00
4727;DHT22;2377;51.734;8.950;2022-12-11T05:59:18;-0.10;1.00
4727;DHT22;2377;51.734;8.950;2022-12-11T06:01:46;-0.20;1.00
4727;DHT22;2377;51.734;8.950;2022-12-11T06:04:13;-0.10;1.00
4727;DHT22;2377;51.734;8.950;2022-12-11T06:06:40;-0.10;1.00
4727;DHT22;2377;51.734;8.950;2022-12-11T06:09:12;-0.10;1.00
4727;DHT22;2377;51.734;8.950;2022-12-11T06:11:41;-0.10;1.00
4727;DHT22;2377;51.734;8.950;2022-12-11T06:14:10;-0.10;1.00
4727;DHT22;2377;51.734;8.950;2022-12-11T06:16:39;-0.10;1.00
4727;DHT22;2377;51.734;8.950;2022-12-11T06:19:12;-0.10;1.00
4727;DHT22;2377;51.734;8.950;2022-12-11T06:21:40;-0.10;1.00
4727;DHT22;2377;51.734;8.950;2022-12-11T06:24:09;-0.10;1.00
4727;DHT22;2377;51.734;8.950;2022-12-11T06:26:37;-0.10;1.00
4727;DHT22;2377;51.734;8.950;2022-12-11T06:29:04;-0.10;1.00
4727;DHT22;2377;51.734;8.950;2022-12-11T06:31:31;-0.10;1.00
4727;DHT22;2377;51.734;8.950;2022-12-11T06:34:00;-0.10;1.00
4727;DHT22;2377;51.734;8.950;2022-12-11T06:36:27;-0.10;1.00
4727;DHT22;2377;51.734;8.950;2022-12-11T06:38:54;-0.10;1.00
4727;DHT22;2377;51.734;8.950;2022-12-11T06:41:21;-0.10;1.00
4727;DHT22;2377;51.734;8.950;2022-12-11T06:43:49;-0.10;1.00
4727;DHT22;2377;51.734;8.950;2022-12-11T06:46:18;-0.10;1.00
4727;DHT22;2377;51.734;8.950;2022-12-11T06:48:46;-0.10;1.00
4727;DHT22;2377;51.734;8.950;2022-12-11T06:51:17;0.00;1.00
4727;DHT22;2377;51.734;8.950;2022-12-11T06:53:49;0.00;1.00
4727;DHT22;2377;51.734;8.950;2022-12-11T06:56:18;0.00;1.00
4727;DHT22;2377;51.734;8.950;2022-12-11T06:58:45;0.00;1.00
4727;DHT22;2377;51.734;8.950;2022-12-11T07:01:15;0.00;1.00
4727;DHT22;2377;51.734;8.950;2022-12-11T07:03:44;0.00;1.00
4727;DHT22;2377;51.734;8.950;2022-12-11T07:06:11;0.00;1.00
4727;DHT22;2377;51.734;8.950;2022-12-11T07:08:40;0.00;1.00
4727;DHT22;2377;51.734;8.950;2022-12-11T07:11:10;0.00;1.00
4727;DHT22;2377;51.734;8.950;2022-12-11T07:13:38;0.00;1.00
4727;DHT22;2377;51.734;8.950;2022-12-11T07:16:10;0.00;1.00
4727;DHT22;2377;51.734;8.950;2022-12-11T07:18:41;0.00;1.00
4727;DHT22;2377;51.734;8.950;2022-12-11T07:21:12;0.00;1.00
4727;DHT22;2377;51.734;8.950;2022-12-11T07:23:42;0.00;1.00
4727;DHT22;2377;51.734;8.950;2022-12-11T07:26:13;0.00;1.00
4727;DHT22;2377;51.734;8.950;2022-12-11T07:28:41;0.00;1.00
4727;DHT22;2377;51.734;8.950;2022-12-11T07:31:11;0.00;1.00
4727;DHT22;2377;51.734;8.950;2022-12-11T07:33:44;0.00;1.00
4727;DHT22;2377;51.734;8.950;2022-12-11T07:36:12;0.00;1.00
4727;DHT22;2377;51.734;8.950;2022-12-11T07:38:42;0.00;1.00
4727;DHT22;2377;51.734;8.950;2022-12-11T07:41:12;0.00;1.00
4727;DHT22;2377;51.734;8.950;2022-12-11T07:43:41;0.00;1.00
4727;DHT22;2377;51.734;8.950;2022-12-11T07:46:11;0.00;1.00
4727;DHT22;2377;51.734;8.950;2022-12-11T07:48:41;0.00;1.00
4727;DHT22;2377;51.734;8.950;2022-12-11T07:51:11;0.00;1.00
4727;DHT22;2377;51.734;8.950;2022-12-11T07:53:42;0.00;1.00
4727;DHT22;2377;51.734;8.950;2022-12-11T07:56:09;0.00;1.00
4727;DHT22;2377;51.734;8.950;2022-12-11T07:58:37;0.00;1.00
4727;DHT22;2377;51.734;8.950;2022-12-11T08:01:05;0.00;1.00
4727;DHT22;2377;51.734;8.950;2022-12-11T08:03:32;0.00;1.00
4727;DHT22;2377;51.734;8.950;2022-12-11T08:05:59;0.00;1.00
4727;DHT22;2377;51.734;8.950;2022-12-11T08:08:26;0.00;1.00
4727;DHT22;2377;51.734;8.950;2022-12-11T08:10:55;0.00;1.00
4727;DHT22;2377;51.734;8.950;2022-12-11T08:13:22;0.10;1.00
4727;DHT22;2377;51.734;8.950;2022-12-11T08:15:49;0.10;1.00
4727;DHT22;2377;51.734;8.950;2022-12-11T08:18:17;0.10;1.00
4727;DHT22;2377;51.734;8.950;2022-12-11T08:20:44;0.10;1.00
4727;DHT22;2377;51.734;8.950;2022-12-11T08:23:11;0.10;1.00
4727;DHT22;2377;51.734;8.950;2022-12-11T08:25:38;0.10;1.00
4727;DHT22;2377;51.734;8.950;2022-12-11T08:28:07;0.10;1.00
4727;DHT22;2377;51.734;8.950;2022-12-11T08:30:34;0.10;1.00
4727;DHT22;2377;51.734;8.950;2022-12-11T08:33:04;0.10;1.00
4727;DHT22;2377;51.734;8.950;2022-12-11T08:35:32;0.10;1.00
4727;DHT22;2377;51.734;8.950;2022-12-11T08:37:59;0.10;1.00
4727;DHT22;2377;51.734;8.950;2022-12-11T08:40:26;0.10;1.00
4727;DHT22;2377;51.734;8.950;2022-12-11T08:42:53;0.10;1.00
4727;DHT22;2377;51.734;8.950;2022-12-11T08:45:22;0.10;1.00
4727;DHT22;2377;51.734;8.950;2022-12-11T08:47:49;0.00;1.00
4727;DHT22;2377;51.734;8.950;2022-12-11T08:50:18;0.00;1.00
4727;DHT22;2377;51.734;8.950;2022-12-11T08:52:45;0.00;1.00
4727;DHT22;2377;51.734;8.950;2022-12-11T08:55:13;0.00;1.00
4727;DHT22;2377;51.734;8.950;2022-12-11T08:57:40;0.00;1.00
4727;DHT22;2377;51.734;8.950;2022-12-11T09:00:11;0.00;1.00
4727;DHT22;2377;51.734;8.950;2022-12-11T09:02:41;0.00;1.00
4727;DHT22;2377;51.734;8.950;2022-12-11T09:05:08;0.10;1.00
4727;DHT22;2377;51.734;8.950;2022-12-11T09:07:37;0.10;99.90
4727;DHT22;2377;51.734;8.950;2022-12-11T09:10:05;0.10;99.90
4727;DHT22;2377;51.734;8.950;2022-12-11T09:12:35;0.10;1.00
4727;DHT22;2377;51.734;8.950;2022-12-11T09:15:03;0.10;1.00
4727;DHT22;2377;51.734;8.950;2022-12-11T09:17:30;0.10;99.90
4727;DHT22;2377;51.734;8.950;2022-12-11T09:20:01;0.10;99.90
4727;DHT22;2377;51.734;8.950;2022-12-11T09:22:31;0.10;99.90
4727;DHT22;2377;51.734;8.950;2022-12-11T09:24:58;0.10;99.90
4727;DHT22;2377;51.734;8.950;2022-12-11T09:27:26;0.10;99.90
4727;DHT22;2377;51.734;8.950;2022-12-11T09:29:53;0.10;99.90
4727;DHT22;2377;51.734;8.950;2022-12-11T09:32:21;0.10;99.90
4727;DHT22;2377;51.734;8.950;2022-12-11T09:34:49;0.10;99.90
4727;DHT22;2377;51.734;8.950;2022-12-11T09:37:18;0.10;99.90
4727;DHT22;2377;51.734;8.950;2022-12-11T09:39:45;0.10;99.90
4727;DHT22;2377;51.734;8.950;2022-12-11T09:42:17;0.10;99.90
4727;DHT22;2377;51.734;8.950;2022-12-11T09:44:51;0.00;99.90
4727;DHT22;2377;51.734;8.950;2022-12-11T09:47:24;0.10;99.90
4727;DHT22;2377;51.734;8.950;2022-12-11T09:50:03;0.10;99.90
4727;DHT22;2377;51.734;8.950;2022-12-11T09:52:51;0.10;99.90
4727;DHT22;2377;51.734;8.950;2022-12-11T09:55:28;0.00;99.90
4727;DHT22;2377;51.734;8.950;2022-12-11T09:58:05;0.10;99.90
4727;DHT22;2377;51.734;8.950;2022-12-11T10:00:47;0.10;99.90
4727;DHT22;2377;51.734;8.950;2022-12-11T10:03:50;0.10;99.90
4727;DHT22;2377;51.734;8.950;2022-12-11T10:06:39;0.10;99.90
4727;DHT22;2377;51.734;8.950;2022-12-11T10:09:18;0.10;99.90
4727;DHT22;2377;51.734;8.950;2022-12-11T10:12:10;0.00;99.90
4727;DHT22;2377;51.734;8.950;2022-12-11T10:15:03;0.00;99.90
4727;DHT22;2377;51.734;8.950;2022-12-11T10:17:41;0.10;99.90
4727;DHT22;2377;51.734;8.950;2022-12-11T10:20:18;0.10;99.90
4727;DHT22;2377;51.734;8.950;2022-12-11T10:22:51;0.10;99.90
4727;DHT22;2377;51.734;8.950;2022-12-11T10:25:26;0.20;99.90
4727;DHT22;2377;51.734;8.950;2022-12-11T10:27:56;0.20;99.90
4727;DHT22;2377;51.734;8.950;2022-12-11T10:30:25;0.20;99.90
4727;DHT22;2377;51.734;8.950;2022-12-11T10:33:01;0.30;99.90
4727;DHT22;2377;51.734;8.950;2022-12-11T10:35:35;0.30;99.90
4727;DHT22;2377;51.734;8.950;2022-12-11T10:38:14;0.30;99.90
4727;DHT22;2377;51.734;8.950;2022-12-11T10:40:46;0.30;99.90
4727;DHT22;2377;51.734;8.950;2022-12-11T10:43:15;0.30;99.90
4727;DHT22;2377;51.734;8.950;2022-12-11T10:45:50;0.30;99.90
4727;DHT22;2377;51.734;8.950;2022-12-11T10:48:18;0.30;99.90
4727;DHT22;2377;51.734;8.950;2022-12-11T10:50:56;0.30;99.90
4727;DHT22;2377;51.734;8.950;2022-12-11T10:53:26;0.30;99.90
4727;DHT22;2377;51.734;8.950;2022-12-11T10:55:55;0.30;99.90
4727;DHT22;2377;51.734;8.950;2022-12-11T10:58:25;0.30;99.90
4727;DHT22;2377;51.734;8.950;2022-12-11T11:01:03;0.30;99.90
4727;DHT22;2377;51.734;8.950;2022-12-11T11:03:34;0.30;99.90
4727;DHT22;2377;51.734;8.950;2022-12-11T11:06:15;0.30;99.90
4727;DHT22;2377;51.734;8.950;2022-12-11T11:08:45;0.30;99.90
4727;DHT22;2377;51.734;8.950;2022-12-11T11:11:27;0.40;99.90
4727;DHT22;2377;51.734;8.950;2022-12-11T11:14:12;0.30;99.90
4727;DHT22;2377;51.734;8.950;2022-12-11T11:16:42;0.30;99.90
4727;DHT22;2377;51.734;8.950;2022-12-11T11:19:18;0.30;99.90
4727;DHT22;2377;51.734;8.950;2022-12-11T11:21:50;0.30;99.90
4727;DHT22;2377;51.734;8.950;2022-12-11T11:24:26;0.30;99.90
4727;DHT22;2377;51.734;8.950;2022-12-11T11:26:58;0.40;99.90
4727;DHT22;2377;51.734;8.950;2022-12-11T11:29:29;0.40;99.90
4727;DHT22;2377;51.734;8.950;2022-12-11T11:32:02;0.40;99.90
4727;DHT22;2377;51.734;8.950;2022-12-11T11:34:41;0.40;99.90
4727;DHT22;2377;51.734;8.950;2022-12-11T11:37:22;0.40;99.90
4727;DHT22;2377;51.734;8.950;2022-12-11T11:39:55;0.30;99.90
4727;DHT22;2377;51.734;8.950;2022-12-11T11:42:37;0.30;99.90
4727;DHT22;2377;51.734;8.950;2022-12-11T11:45:13;0.40;99.90
4727;DHT22;2377;51.734;8.950;2022-12-11T11:47:53;0.40;99.90
4727;DHT22;2377;51.734;8.950;2022-12-11T11:50:30;0.30;99.90
4727;DHT22;2377;51.734;8.950;2022-12-11T11:53:04;0.40;99.90
4727;DHT22;2377;51.734;8.950;2022-12-11T11:55:40;0.30;99.90
4727;DHT22;2377;51.734;8.950;2022-12-11T11:58:18;0.40;99.90
4727;DHT22;2377;51.734;8.950;2022-12-11T12:00:52;0.30;99.90
4727;DHT22;2377;51.734;8.950;2022-12-11T12:03:22;0.30;99.90
4727;DHT22;2377;51.734;8.950;2022-12-11T12:05:53;0.30;99.90
4727;DHT22;2377;51.734;8.950;2022-12-11T12:08:38;0.40;99.90
4727;DHT22;2377;51.734;8.950;2022-12-11T12:11:21;0.40;99.90
4727;DHT22;2377;51.734;8.950;2022-12-11T12:14:08;0.40;99.90
4727;DHT22;2377;51.734;8.950;2022-12-11T12:16:50;0.40;99.90
4727;DHT22;2377;51.734;8.950;2022-12-11T12:19:42;0.30;99.90
4727;DHT22;2377;51.734;8.950;2022-12-11T12:22:26;0.30;99.90
4727;DHT22;2377;51.734;8.950;2022-12-11T12:25:15;0.30;99.90
4727;DHT22;2377;51.734;8.950;2022-12-11T12:27:54;0.30;99.90
4727;DHT22;2377;51.734;8.950;2022-12-11T12:30:43;0.30;99.90
4727;DHT22;2377;51.734;8.950;2022-12-11T12:33:31;0.30;99.90
4727;DHT22;2377;51.734;8.950;2022-12-11T12:36:16;0.30;99.90
4727;DHT22;2377;51.734;8.950;2022-12-11T12:38:53;0.30;99.90
4727;DHT22;2377;51.734;8.950;2022-12-11T12:41:32;0.30;99.90
4727;DHT22;2377;51.734;8.950;2022-12-11T12:44:12;0.30;99.90
4727;DHT22;2377;51.734;8.950;2022-12-11T12:46:57;0.20;99.90
4727;DHT22;2377;51.734;8.950;2022-12-11T12:49:34;0.10;99.90
4727;DHT22;2377;51.734;8.950;2022-12-11T12:52:11;0.20;99.90
4727;DHT22;2377;51.734;8.950;2022-12-11T12:54:45;0.20;99.90
4727;DHT22;2377;51.734;8.950;2022-12-11T12:57:31;0.20;99.90
4727;DHT22;2377;51.734;8.950;2022-12-11T12:59:59;0.30;99.90
4727;DHT22;2377;51.734;8.950;2022-12-11T13:02:29;0.30;99.90
4727;DHT22;2377;51.734;8.950;2022-12-11T13:04:59;0.30;99.90
4727;DHT22;2377;51.734;8.950;2022-12-11T13:07:32;0.20;99.90
4727;DHT22;2377;51.734;8.950;2022-12-11T13:10:06;0.20;99.90
4727;DHT22;2377;51.734;8.950;2022-12-11T13:12:48;0.20;99.90
4727;DHT22;2377;51.734;8.950;2022-12-11T13:15:30;0.20;99.90
4727;DHT22;2377;51.734;8.950;2022-12-11T13:18:03;0.10;99.90
4727;DHT22;2377;51.734;8.950;2022-12-11T13:20:51;0.20;99.90
4727;DHT22;2377;51.734;8.950;2022-12-11T13:23:26;0.20;99.90
4727;DHT22;2377;51.734;8.950;2022-12-11T13:25:56;0.10;99.90
4727;DHT22;2377;51.734;8.950;2022-12-11T13:28:32;0.10;99.90
4727;DHT22;2377;51.734;8.950;2022-12-11T13:31:31;0.10;99.90
4727;DHT22;2377;51.734;8.950;2022-12-11T13:34:15;0.10;99.90
4727;DHT22;2377;51.734;8.950;2022-12-11T13:36:48;0.10;99.90
4727;DHT22;2377;51.734;8.950;2022-12-11T13:39:18;0.10;99.90
4727;DHT22;2377;51.734;8.950;2022-12-11T13:41:51;0.10;99.90
4727;DHT22;2377;51.734;8.950;2022-12-11T13:44:23;0.10;99.90
4727;DHT22;2377;51.734;8.950;2022-12-11T13:46:55;0.10;99.90
4727;DHT22;2377;51.734;8.950;2022-12-11T13:49:27;0.10;99.90
4727;DHT22;2377;51.734;8.950;2022-12-11T13:51:59;0.10;99.90
4727;DHT22;2377;51.734;8.950;2022-12-11T13:54:28;0.10;99.90
4727;DHT22;2377;51.734;8.950;2022-12-11T13:56:59;0.10;99.90
4727;DHT22;2377;51.734;8.950;2022-12-11T13:59:31;0.10;99.90
4727;DHT22;2377;51.734;8.950;2022-12-11T14:02:04;0.10;99.90
4727;DHT22;2377;51.734;8.950;2022-12-11T14:04:40;0.10;99.90
4727;DHT22;2377;51.734;8.950;2022-12-11T14:07:09;0.10;99.90
4727;DHT22;2377;51.734;8.950;2022-12-11T14:09:41;0.10;99.90
4727;DHT22;2377;51.734;8.950;2022-12-11T14:12:14;0.10;99.90
4727;DHT22;2377;51.734;8.950;2022-12-11T14:14:46;0.10;99.90
4727;DHT22;2377;51.734;8.950;2022-12-11T14:17:20;0.10;99.90
4727;DHT22;2377;51.734;8.950;2022-12-11T14:19:52;0.10;99.90
4727;DHT22;2377;51.734;8.950;2022-12-11T14:22:24;0.10;99.90
4727;DHT22;2377;51.734;8.950;2022-12-11T14:24:54;0.10;99.90
4727;DHT22;2377;51.734;8.950;2022-12-11T14:27:23;0.10;99.90
4727;DHT22;2377;51.734;8.950;2022-12-11T14:29:52;0.10;99.90
4727;DHT22;2377;51.734;8.950;2022-12-11T14:32:31;0.10;99.90
4727;DHT22;2377;51.734;8.950;2022-12-11T14:35:06;0.10;99.90
4727;DHT22;2377;51.734;8.950;2022-12-11T14:37:47;0.10;99.90
4727;DHT22;2377;51.734;8.950;2022-12-11T14:40:17;0.10;99.90
4727;DHT22;2377;51.734;8.950;2022-12-11T14:42:47;0.10;99.90
4727;DHT22;2377;51.734;8.950;2022-12-11T14:45:20;0.10;99.90
4727;DHT22;2377;51.734;8.950;2022-12-11T14:47:54;0.10;99.90
4727;DHT22;2377;51.734;8.950;2022-12-11T14:50:26;0.10;99.90
4727;DHT22;2377;51.734;8.950;2022-12-11T14:53:02;0.10;99.90
4727;DHT22;2377;51.734;8.950;2022-12-11T14:55:34;0.20;99.90
4727;DHT22;2377;51.734;8.950;2022-12-11T14:58:07;0.20;99.90
4727;DHT22;2377;51.734;8.950;2022-12-11T15:00:41;0.20;99.90
4727;DHT22;2377;51.734;8.950;2022-12-11T15:03:21;0.20;99.90
4727;DHT22;2377;51.734;8.950;2022-12-11T15:05:52;0.20;99.90
4727;DHT22;2377;51.734;8.950;2022-12-11T15:08:21;0.20;99.90
4727;DHT22;2377;51.734;8.950;2022-12-11T15:11:00;0.20;99.90
4727;DHT22;2377;51.734;8.950;2022-12-11T15:13:31;0.20;99.90
4727;DHT22;2377;51.734;8.950;2022-12-11T15:16:00;0.10;99.90
4727;DHT22;2377;51.734;8.950;2022-12-11T15:18:31;0.10;99.90
4727;DHT22;2377;51.734;8.950;2022-12-11T15:21:02;0.10;99.90
4727;DHT22;2377;51.734;8.950;2022-12-11T15:23:46;0.10;99.90
4727;DHT22;2377;51.734;8.950;2022-12-11T15:26:18;0.10;99.90
4727;DHT22;2377;51.734;8.950;2022-12-11T15:28:47;0.20;99.90
4727;DHT22;2377;51.734;8.950;2022-12-11T15:31:26;0.20;99.90
4727;DHT22;2377;51.734;8.950;2022-12-11T15:33:55;0.10;99.90
4727;DHT22;2377;51.734;8.950;2022-12-11T15:36:28;0.10;99.90
4727;DHT22;2377;51.734;8.950;2022-12-11T15:38:58;0.10;99.90
4727;DHT22;2377;51.734;8.950;2022-12-11T15:41:25;0.10;99.90
4727;DHT22;2377;51.734;8.950;2022-12-11T15:43:59;0.10;99.90
4727;DHT22;2377;51.734;8.950;2022-12-11T15:46:28;0.10;99.90
4727;DHT22;2377;51.734;8.950;2022-12-11T15:48:56;0.10;99.90
4727;DHT22;2377;51.734;8.950;2022-12-11T15:51:25;0.10;99.90
4727;DHT22;2377;51.734;8.950;2022-12-11T15:53:52;0.10;99.90
4727;DHT22;2377;51.734;8.950;2022-12-11T15:56:19;0.10;99.90
4727;DHT22;2377;51.734;8.950;2022-12-11T15:58:48;0.10;99.90
4727;DHT22;2377;51.734;8.950;2022-12-11T16:01:15;0.10;99.90
4727;DHT22;2377;51.734;8.950;2022-12-11T16:03:43;0.10;99.90
4727;DHT22;2377;51.734;8.950;2022-12-11T16:06:12;0.10;99.90
4727;DHT22;2377;51.734;8.950;2022-12-11T16:08:41;0.10;99.90
4727;DHT22;2377;51.734;8.950;2022-12-11T16:11:11;0.10;99.90
4727;DHT22;2377;51.734;8.950;2022-12-11T16:13:39;0.20;99.90
4727;DHT22;2377;51.734;8.950;2022-12-11T16:16:07;0.10;99.90
4727;DHT22;2377;51.734;8.950;2022-12-11T16:18:34;0.10;99.90
4727;DHT22;2377;51.734;8.950;2022-12-11T16:21:03;0.20;99.90
4727;DHT22;2377;51.734;8.950;2022-12-11T16:23:31;0.10;99.90
4727;DHT22;2377;51.734;8.950;2022-12-11T16:26:04;0.20;99.90
4727;DHT22;2377;51.734;8.950;2022-12-11T16:28:33;0.10;99.90
4727;DHT22;2377;51.734;8.950;2022-12-11T16:31:01;0.10;99.90
4727;DHT22;2377;51.734;8.950;2022-12-11T16:33:28;0.10;99.90
4727;DHT22;2377;51.734;8.950;2022-12-11T16:35:55;0.10;99.90
4727;DHT22;2377;51.734;8.950;2022-12-11T16:38:23;0.10;99.90
4727;DHT22;2377;51.734;8.950;2022-12-11T16:41:00;0.10;99.90
4727;DHT22;2377;51.734;8.950;2022-12-11T16:43:27;0.10;99.90
4727;DHT22;2377;51.734;8.950;2022-12-11T16:45:54;0.10;99.90